Time;durP1;ratioP1;P1;durP2;ratioP2;P2;SDS_P1;SDS_P2;PMS_P1;PMS_P2;Temp;Humidity;BMP_temperature;BMP_pressure;BME280_temperature;BME280_humidity;BME280_pressure;Samples;Min_cycle;Max_cycle;Signal;HPM_P1;HPM_P2
2024/04/01 00:01:45;;;;;;;0.30;0.20;;;;;;;;;;5035025;28;20709;-68
2024/04/01 00:04:11;;;;;;;0.90;0.77;;;;;;;;;;5035434;28;20497;-68
2024/04/01 00:06:37;;;;;;;0.98;0.40;;;;;;;;;;5034955;28;20105;-68
2024/04/01 00:09:03;;;;;;;0.45;0.30;;;;;;;;;;5034733;28;20022;-68
2024/04/01 00:11:29;;;;;;;0.30;0.30;;;;;;;;;;5034427;28;20025;-68
2024/04/01 00:13:55;;;;;;;0.38;0.20;;;;;;;;;;5035285;28;20104;-67
2024/04/01 00:16:21;;;;;;;0.57;0.43;;;;;;;;;;5034617;28;20092;-68
2024/04/01 00:18:47;;;;;;;1.10;0.50;;;;;;;;;;5034581;28;20064;-68
2024/04/01 00:21:13;;;;;;;0.40;0.40;;;;;;;;;;5034278;28;20071;-68
2024/04/01 00:23:39;;;;;;;1.52;0.50;;;;;;;;;;5034276;28;20030;-68
2024/04/01 00:26:05;;;;;;;0.52;0.38;;;;;;;;;;5035679;28;20025;-68
2024/04/01 00:28:31;;;;;;;0.40;0.40;;;;;;;;;;5034413;28;20032;-69
2024/04/01 00:30:57;;;;;;;0.68;0.57;;;;;;;;;;5034563;28;20105;-68
2024/04/01 00:33:23;;;;;;;0.45;0.40;;;;;;;;;;5033947;28;20493;-68
2024/04/01 00:35:49;;;;;;;0.50;0.30;;;;;;;;;;5035154;28;20025;-68
2024/04/01 00:38:15;;;;;;;0.75;0.38;;;;;;;;;;5034163;28;20218;-67
2024/04/01 00:40:41;;;;;;;1.27;0.35;;;;;;;;;;5033753;28;20477;-68
2024/04/01 00:43:08;;;;;;;0.80;0.70;;;;;;;;;;5033832;28;20084;-68
2024/04/01 00:45:36;;;;;;;0.47;0.47;;;;;;;;;;5033913;28;20056;-68
2024/04/01 00:48:03;;;;;;;0.75;0.50;;;;;;;;;;5035103;28;20029;-68
2024/04/01 00:50:29;;;;;;;0.30;0.30;;;;;;;;;;5033776;28;20056;-68
2024/04/01 00:52:55;;;;;;;0.30;0.30;;;;;;;;;;5033635;28;20035;-69
2024/04/01 00:55:22;;;;;;;0.40;0.40;;;;;;;;;;5033950;28;20021;-69
2024/04/01 00:57:48;;;;;;;0.57;0.50;;;;;;;;;;5034461;28;20539;-70
2024/04/01 01:00:14;;;;;;;1.95;0.50;;;;;;;;;;5034029;28;20021;-67
2024/04/01 01:02:40;;;;;;;1.38;0.55;;;;;;;;;;5033505;28;20053;-68
2024/04/01 01:05:07;;;;;;;0.40;0.40;;;;;;;;;;5032314;28;20060;-68
2024/04/01 01:07:33;;;;;;;0.70;0.43;;;;;;;;;;5033555;28;20454;-68
2024/04/01 01:10:00;;;;;;;0.68;0.50;;;;;;;;;;5034837;28;20021;-68
2024/04/01 01:12:26;;;;;;;0.73;0.45;;;;;;;;;;5033255;28;20448;-68
2024/04/01 01:14:52;;;;;;;0.82;0.60;;;;;;;;;;5033493;28;20028;-71
2024/04/01 01:17:18;;;;;;;0.77;0.50;;;;;;;;;;5033255;28;20021;-69
2024/04/01 01:19:44;;;;;;;0.68;0.50;;;;;;;;;;5033733;28;20061;-68
2024/04/01 01:22:14;;;;;;;0.70;0.47;;;;;;;;;;5033278;28;20096;-68
2024/04/01 01:24:40;;;;;;;1.02;0.63;;;;;;;;;;5031758;28;20032;-68
2024/04/01 01:27:06;;;;;;;0.70;0.40;;;;;;;;;;5033172;28;20045;-68
2024/04/01 01:29:32;;;;;;;0.45;0.38;;;;;;;;;;5033113;28;20025;-68
2024/04/01 01:32:00;;;;;;;0.65;0.52;;;;;;;;;;5034109;28;20196;-69
2024/04/01 01:34:26;;;;;;;0.47;0.47;;;;;;;;;;5033337;28;20024;-68
2024/04/01 01:36:53;;;;;;;0.47;0.40;;;;;;;;;;5032989;28;20030;-71
2024/04/01 01:39:19;;;;;;;1.15;0.50;;;;;;;;;;5032579;28;20018;-68
2024/04/01 01:41:45;;;;;;;1.00;0.38;;;;;;;;;;5033348;28;20112;-68
2024/04/01 01:44:11;;;;;;;0.65;0.47;;;;;;;;;;5033527;28;20524;-68
2024/04/01 01:46:37;;;;;;;0.80;0.60;;;;;;;;;;5033065;28;20026;-68
2024/04/01 01:49:06;;;;;;;1.33;0.70;;;;;;;;;;5031420;28;20025;-68
2024/04/01 01:51:32;;;;;;;1.75;0.95;;;;;;;;;;5032531;28;20048;-70
2024/04/01 01:53:58;;;;;;;0.98;0.88;;;;;;;;;;5033985;28;20029;-70
2024/04/01 01:56:24;;;;;;;1.10;0.68;;;;;;;;;;5032957;28;20075;-68
2024/04/01 01:58:51;;;;;;;0.65;0.28;;;;;;;;;;5032670;28;20026;-68
2024/04/01 02:01:17;;;;;;;0.75;0.30;;;;;;;;;;5032560;28;20021;-70
2024/04/01 02:03:46;;;;;;;2.97;0.73;;;;;;;;;;5032562;28;20074;-70
2024/04/01 02:06:12;;;;;;;1.00;0.50;;;;;;;;;;5033393;28;20043;-69
2024/04/01 02:08:38;;;;;;;0.68;0.50;;;;;;;;;;5032623;28;20029;-68
2024/04/01 02:11:04;;;;;;;0.63;0.50;;;;;;;;;;5032407;28;20083;-68
2024/04/01 02:13:30;;;;;;;0.77;0.52;;;;;;;;;;5032122;28;20028;-69
2024/04/01 02:16:06;;;;;;;1.38;0.50;;;;;;;;;;5034187;28;20026;-68
2024/04/01 02:18:33;;;;;;;0.65;0.30;;;;;;;;;;5032654;28;20018;-68
2024/04/01 02:20:59;;;;;;;0.60;0.30;;;;;;;;;;5032449;28;20428;-68
2024/04/01 02:23:31;;;;;;;2.17;0.50;;;;;;;;;;5032280;28;20022;-68
2024/04/01 02:26:04;;;;;;;1.98;0.80;;;;;;;;;;5033789;28;20029;-69
2024/04/01 02:28:31;;;;;;;1.33;0.70;;;;;;;;;;5031410;28;20025;-69
2024/04/01 02:30:57;;;;;;;1.17;0.43;;;;;;;;;;5032454;28;20033;-68
2024/04/01 02:33:23;;;;;;;0.98;0.40;;;;;;;;;;5032351;28;20370;-68
2024/04/01 02:35:50;;;;;;;0.30;0.20;;;;;;;;;;5032910;28;20022;-69
2024/04/01 02:38:16;;;;;;;1.30;0.60;;;;;;;;;;5024772;28;20029;-68
2024/04/01 02:40:42;;;;;;;1.92;0.57;;;;;;;;;;5030197;28;20393;-69
2024/04/01 02:43:08;;;;;;;0.75;0.45;;;;;;;;;;5036312;28;20025;-69
2024/04/01 02:45:34;;;;;;;1.10;0.60;;;;;;;;;;5036242;28;20104;-69
2024/04/01 02:48:00;;;;;;;0.45;0.35;;;;;;;;;;5037715;28;20470;-69
2024/04/01 02:50:26;;;;;;;0.60;0.50;;;;;;;;;;5036217;28;20060;-70
2024/04/01 02:52:52;;;;;;;1.30;0.88;;;;;;;;;;5036703;28;20033;-69
2024/04/01 02:55:19;;;;;;;0.60;0.60;;;;;;;;;;5028323;28;20097;-70
2024/04/01 02:57:45;;;;;;;0.82;0.60;;;;;;;;;;5036924;28;20096;-69
2024/04/01 03:00:17;;;;;;;1.27;0.70;;;;;;;;;;5041966;28;20094;-69
2024/04/01 03:02:47;;;;;;;1.42;0.60;;;;;;;;;;5041679;28;20026;-68
2024/04/01 03:05:16;;;;;;;1.02;0.80;;;;;;;;;;5028158;22;20058;-64
2024/04/01 03:07:43;;;;;;;0.85;0.30;;;;;;;;;;4994215;28;20379;-65
2024/04/01 03:10:11;;;;;;;0.73;0.60;;;;;;;;;;4994594;28;20014;-64
2024/04/01 03:12:37;;;;;;;0.60;0.40;;;;;;;;;;4994616;28;20077;-63
2024/04/01 03:15:03;;;;;;;0.85;0.50;;;;;;;;;;4994750;28;20481;-59
2024/04/01 03:17:31;;;;;;;0.30;0.30;;;;;;;;;;4994826;28;20117;-64
2024/04/01 03:19:57;;;;;;;0.82;0.60;;;;;;;;;;4994758;28;20457;-63
2024/04/01 03:22:23;;;;;;;0.63;0.50;;;;;;;;;;4994557;28;20089;-62
2024/04/01 03:24:50;;;;;;;0.40;0.40;;;;;;;;;;4994583;28;20073;-64
2024/04/01 03:27:16;;;;;;;1.35;0.60;;;;;;;;;;4994368;28;20022;-64
2024/04/01 03:29:42;;;;;;;1.70;0.70;;;;;;;;;;4994419;28;20104;-61
2024/04/01 03:32:08;;;;;;;2.38;0.73;;;;;;;;;;4992871;28;20030;-62
2024/04/01 03:34:34;;;;;;;0.82;0.40;;;;;;;;;;4994345;28;20485;-62
2024/04/01 03:37:01;;;;;;;0.75;0.50;;;;;;;;;;4994258;28;20096;-64
2024/04/01 03:39:28;;;;;;;0.90;0.60;;;;;;;;;;4994447;28;20093;-60
2024/04/01 03:41:54;;;;;;;0.68;0.52;;;;;;;;;;4995200;28;20031;-59
2024/04/01 03:44:20;;;;;;;1.05;0.70;;;;;;;;;;4993842;28;20031;-62
2024/04/01 03:46:47;;;;;;;2.72;0.52;;;;;;;;;;4993681;28;20032;-64
2024/04/01 03:49:13;;;;;;;1.02;0.60;;;;;;;;;;4994125;28;20057;-63
2024/04/01 03:51:39;;;;;;;1.35;0.63;;;;;;;;;;4993866;28;20035;-64
2024/04/01 03:54:05;;;;;;;1.17;0.60;;;;;;;;;;4994809;28;20037;-64
2024/04/01 03:56:31;;;;;;;0.68;0.50;;;;;;;;;;4993784;28;20030;-60
2024/04/01 03:58:57;;;;;;;1.15;0.43;;;;;;;;;;4992442;28;20034;-63
2024/04/01 04:01:23;;;;;;;0.85;0.35;;;;;;;;;;4993692;28;20483;-62
2024/04/01 04:03:49;;;;;;;1.38;0.63;;;;;;;;;;4994549;28;20030;-64
2024/04/01 04:06:15;;;;;;;1.38;0.70;;;;;;;;;;4993952;28;20035;-64
2024/04/01 04:08:45;;;;;;;2.63;0.73;;;;;;;;;;4993694;28;20030;-61
2024/04/01 04:11:11;;;;;;;1.45;0.70;;;;;;;;;;4993549;28;20516;-62
2024/04/01 04:13:37;;;;;;;1.42;0.80;;;;;;;;;;4994295;28;20031;-60
2024/04/01 04:16:03;;;;;;;0.55;0.40;;;;;;;;;;4994946;28;20446;-60
2024/04/01 04:18:29;;;;;;;0.70;0.45;;;;;;;;;;4993752;28;20034;-60
2024/04/01 04:20:56;;;;;;;1.33;0.75;;;;;;;;;;4993514;28;20023;-60
2024/04/01 04:23:22;;;;;;;1.67;0.70;;;;;;;;;;4993319;28;20018;-61
2024/04/01 04:25:48;;;;;;;2.20;1.02;;;;;;;;;;4989623;28;20038;-63
2024/04/01 04:28:14;;;;;;;0.40;0.40;;;;;;;;;;4994010;28;20494;-60
2024/04/01 04:30:40;;;;;;;3.05;1.08;;;;;;;;;;4993527;28;20109;-60
2024/04/01 04:33:06;;;;;;;0.65;0.50;;;;;;;;;;4993291;28;20177;-60
2024/04/01 04:35:32;;;;;;;1.08;0.57;;;;;;;;;;4991879;28;20041;-55
2024/04/01 04:37:58;;;;;;;1.02;0.57;;;;;;;;;;4994591;28;20026;-61
2024/04/01 04:40:25;;;;;;;2.22;0.75;;;;;;;;;;4993062;28;20022;-60
2024/04/01 04:42:51;;;;;;;1.75;0.65;;;;;;;;;;4992970;28;20490;-62
2024/04/01 04:45:23;;;;;;;0.77;0.52;;;;;;;;;;4992995;28;20022;-61
2024/04/01 04:47:52;;;;;;;0.63;0.32;;;;;;;;;;4993991;28;20018;-61
2024/04/01 04:50:19;;;;;;;0.70;0.60;;;;;;;;;;4984858;28;20014;-61
2024/04/01 04:52:45;;;;;;;1.08;0.70;;;;;;;;;;4992618;28;20030;-62
2024/04/01 04:55:11;;;;;;;1.38;0.50;;;;;;;;;;4992994;28;20057;-64
2024/04/01 04:57:37;;;;;;;0.82;0.40;;;;;;;;;;4992298;28;20499;-65
2024/04/01 05:00:20;;;;;;;1.23;0.55;;;;;;;;;;4994180;28;20014;-61
2024/04/01 05:02:47;;;;;;;0.75;0.52;;;;;;;;;;4992709;28;20450;-60
2024/04/01 05:05:14;;;;;;;1.08;0.35;;;;;;;;;;4992708;28;20034;-61
2024/04/01 05:07:40;;;;;;;0.30;0.30;;;;;;;;;;4992640;28;20121;-61
2024/04/01 05:10:06;;;;;;;1.83;0.80;;;;;;;;;;4993962;28;20489;-60
2024/04/01 05:12:32;;;;;;;0.57;0.30;;;;;;;;;;4992713;28;20537;-63
2024/04/01 05:14:58;;;;;;;1.15;0.47;;;;;;;;;;4992250;28;20058;-62
2024/04/01 05:17:24;;;;;;;1.13;0.60;;;;;;;;;;4992511;28;20086;-62
2024/04/01 05:19:50;;;;;;;1.08;0.38;;;;;;;;;;4993788;28;20071;-63
2024/04/01 05:22:16;;;;;;;1.40;0.60;;;;;;;;;;4992644;28;20033;-64
2024/04/01 05:24:42;;;;;;;1.48;0.60;;;;;;;;;;4992032;28;20031;-63
2024/04/01 05:27:08;;;;;;;0.55;0.40;;;;;;;;;;4992170;28;20026;-63
2024/04/01 05:29:34;;;;;;;2.55;0.73;;;;;;;;;;4992314;28;20094;-64
2024/04/01 05:32:00;;;;;;;1.20;0.60;;;;;;;;;;4993308;28;20037;-65
2024/04/01 05:34:26;;;;;;;1.13;0.57;;;;;;;;;;4991703;28;20118;-63
2024/04/01 05:36:52;;;;;;;1.38;0.40;;;;;;;;;;4992236;28;20022;-63
2024/04/01 05:39:19;;;;;;;3.20;0.90;;;;;;;;;;4990692;28;20058;-61
2024/04/01 05:41:45;;;;;;;2.00;0.60;;;;;;;;;;4992117;28;20502;-63
2024/04/01 05:44:11;;;;;;;1.27;0.57;;;;;;;;;;4992839;28;20089;-63
2024/04/01 05:46:37;;;;;;;1.50;0.60;;;;;;;;;;4992026;28;20038;-63
2024/04/01 05:49:03;;;;;;;0.63;0.50;;;;;;;;;;4992035;28;20022;-62
2024/04/01 05:51:29;;;;;;;0.52;0.38;;;;;;;;;;4991660;28;20033;-63
2024/04/01 05:53:55;;;;;;;0.88;0.45;;;;;;;;;;4990073;28;20109;-62
2024/04/01 05:56:21;;;;;;;0.60;0.52;;;;;;;;;;4991717;28;20511;-63
2024/04/01 05:58:49;;;;;;;0.90;0.68;;;;;;;;;;4992156;28;20042;-63
2024/04/01 06:01:15;;;;;;;1.20;0.52;;;;;;;;;;4991423;28;20077;-64
2024/04/01 06:03:41;;;;;;;0.60;0.40;;;;;;;;;;4992072;28;20034;-63
2024/04/01 06:06:07;;;;;;;0.47;0.38;;;;;;;;;;4992869;28;20044;-65
2024/04/01 06:08:33;;;;;;;0.60;0.50;;;;;;;;;;4991232;28;20042;-65
2024/04/01 06:11:01;;;;;;;1.02;0.70;;;;;;;;;;4991548;28;20124;-63
2024/04/01 06:13:27;;;;;;;1.15;0.40;;;;;;;;;;4991889;28;20441;-64
2024/04/01 06:15:53;;;;;;;1.25;0.55;;;;;;;;;;4993061;28;20097;-63
2024/04/01 06:18:19;;;;;;;0.40;0.40;;;;;;;;;;4983601;28;20030;-64
2024/04/01 06:20:46;;;;;;;0.68;0.43;;;;;;;;;;4991435;28;20027;-63
2024/04/01 06:23:12;;;;;;;1.05;0.40;;;;;;;;;;4991231;28;20434;-61
2024/04/01 06:25:38;;;;;;;0.90;0.50;;;;;;;;;;4991519;28;20161;-63
2024/04/01 06:28:04;;;;;;;0.45;0.40;;;;;;;;;;4993051;28;20466;-61
2024/04/01 06:30:30;;;;;;;0.90;0.47;;;;;;;;;;4991502;28;20031;-60
2024/04/01 06:32:56;;;;;;;1.25;0.80;;;;;;;;;;4991248;28;20033;-61
2024/04/01 06:35:22;;;;;;;1.35;0.47;;;;;;;;;;4991336;28;20041;-59
2024/04/01 06:37:48;;;;;;;0.50;0.30;;;;;;;;;;4992260;28;20068;-63
2024/04/01 06:40:15;;;;;;;0.75;0.50;;;;;;;;;;4990542;28;20489;-62
2024/04/01 06:42:41;;;;;;;0.75;0.55;;;;;;;;;;4991258;28;20058;-64
2024/04/01 06:45:07;;;;;;;1.55;0.65;;;;;;;;;;4991041;28;20029;-60
2024/04/01 06:47:33;;;;;;;1.05;0.68;;;;;;;;;;4990122;28;20143;-62
2024/04/01 06:49:59;;;;;;;1.55;0.60;;;;;;;;;;4991469;28;20642;-61
2024/04/01 06:52:25;;;;;;;0.70;0.52;;;;;;;;;;4991379;28;20027;-63
2024/04/01 06:54:52;;;;;;;1.08;0.40;;;;;;;;;;4991491;28;20392;-62
2024/04/01 06:57:18;;;;;;;1.60;0.70;;;;;;;;;;4991467;28;20540;-64
2024/04/01 06:59:44;;;;;;;1.75;0.70;;;;;;;;;;4992909;28;20141;-62
2024/04/01 07:02:11;;;;;;;1.25;0.35;;;;;;;;;;4993023;28;20384;-64
2024/04/01 07:04:37;;;;;;;2.05;0.93;;;;;;;;;;4991698;28;20052;-63
2024/04/01 07:07:04;;;;;;;2.38;0.57;;;;;;;;;;4991933;28;20022;-61
2024/04/01 07:09:30;;;;;;;1.70;0.57;;;;;;;;;;4992249;28;20463;-63
2024/04/01 07:11:56;;;;;;;0.73;0.40;;;;;;;;;;4993282;28;20037;-62
2024/04/01 07:14:22;;;;;;;2.10;0.80;;;;;;;;;;4991968;28;20022;-62
2024/04/01 07:16:48;;;;;;;1.48;0.73;;;;;;;;;;4991984;28;20049;-62
2024/04/01 07:19:14;;;;;;;0.63;0.40;;;;;;;;;;4991486;28;20089;-61
2024/04/01 07:21:40;;;;;;;2.95;0.75;;;;;;;;;;4993954;28;20042;-64
2024/04/01 07:24:06;;;;;;;0.40;0.40;;;;;;;;;;4996932;28;20022;-63
2024/04/01 07:26:32;;;;;;;0.90;0.65;;;;;;;;;;4995391;28;20069;-62
2024/04/01 07:28:58;;;;;;;0.85;0.45;;;;;;;;;;4995373;28;20394;-62
2024/04/01 07:31:24;;;;;;;0.63;0.30;;;;;;;;;;4995208;28;20080;-61
2024/04/01 07:33:50;;;;;;;2.20;0.65;;;;;;;;;;4996612;28;20026;-63
2024/04/01 07:36:16;;;;;;;1.08;0.63;;;;;;;;;;4996265;28;20564;-61
2024/04/01 07:38:42;;;;;;;1.40;0.63;;;;;;;;;;4996837;28;20030;-62
2024/04/01 07:41:08;;;;;;;2.00;0.40;;;;;;;;;;4997861;28;20094;-63
2024/04/01 07:43:34;;;;;;;0.95;0.43;;;;;;;;;;4998431;28;20455;-64
2024/04/01 07:46:00;;;;;;;0.50;0.40;;;;;;;;;;4998428;28;20038;-63
2024/04/01 07:48:27;;;;;;;0.75;0.52;;;;;;;;;;4995830;28;20026;-63
2024/04/01 07:50:53;;;;;;;0.73;0.30;;;;;;;;;;4995349;28;20030;-62
2024/04/01 07:53:19;;;;;;;0.77;0.55;;;;;;;;;;4994696;28;20025;-63
2024/04/01 07:55:45;;;;;;;0.32;0.30;;;;;;;;;;4994915;28;20057;-63
2024/04/01 07:58:11;;;;;;;0.80;0.50;;;;;;;;;;4995941;28;20014;-63
2024/04/01 08:00:37;;;;;;;0.52;0.43;;;;;;;;;;4995592;28;20037;-62
2024/04/01 08:03:03;;;;;;;0.70;0.50;;;;;;;;;;4994600;28;20022;-64
2024/04/01 08:05:29;;;;;;;0.77;0.50;;;;;;;;;;4994518;28;20033;-64
2024/04/01 08:07:55;;;;;;;0.95;0.50;;;;;;;;;;4996183;28;20022;-63
2024/04/01 08:10:21;;;;;;;1.38;0.50;;;;;;;;;;4994486;28;20014;-62
2024/04/01 08:12:47;;;;;;;0.50;0.50;;;;;;;;;;4994857;28;20034;-63
2024/04/01 08:15:13;;;;;;;1.08;0.47;;;;;;;;;;4994578;28;20034;-63
2024/04/01 08:17:39;;;;;;;0.60;0.60;;;;;;;;;;4993046;28;20034;-63
2024/04/01 08:20:05;;;;;;;0.50;0.50;;;;;;;;;;4994420;28;20504;-64
2024/04/01 08:22:33;;;;;;;0.73;0.60;;;;;;;;;;4993017;28;20506;-62
2024/04/01 08:24:59;;;;;;;0.65;0.40;;;;;;;;;;4994152;28;20521;-63
2024/04/01 08:27:26;;;;;;;0.50;0.50;;;;;;;;;;4994412;28;20038;-64
2024/04/01 08:29:52;;;;;;;2.00;0.50;;;;;;;;;;4995373;28;20026;-64
2024/04/01 08:32:18;;;;;;;1.25;0.52;;;;;;;;;;4994460;28;20482;-64
2024/04/01 08:34:44;;;;;;;0.50;0.28;;;;;;;;;;4994150;28;20057;-64
2024/04/01 08:37:10;;;;;;;0.63;0.40;;;;;;;;;;4994346;28;20054;-62
2024/04/01 08:39:36;;;;;;;0.90;0.57;;;;;;;;;;4994205;28;20050;-62
2024/04/01 08:42:04;;;;;;;0.60;0.40;;;;;;;;;;4995430;28;20446;-64
2024/04/01 08:44:31;;;;;;;0.68;0.45;;;;;;;;;;4994212;28;20023;-61
2024/04/01 08:46:58;;;;;;;1.52;0.68;;;;;;;;;;4993021;28;20040;-63
2024/04/01 08:49:27;;;;;;;0.50;0.40;;;;;;;;;;4994579;28;20026;-65
2024/04/01 08:51:56;;;;;;;0.65;0.55;;;;;;;;;;4995261;28;20042;-63
2024/04/01 08:54:22;;;;;;;1.50;0.60;;;;;;;;;;4988399;28;20022;-64
2024/04/01 08:56:48;;;;;;;1.60;0.70;;;;;;;;;;4996189;28;20757;-64
2024/04/01 08:59:16;;;;;;;1.00;0.38;;;;;;;;;;4996017;28;20118;-64
2024/04/01 09:01:42;;;;;;;1.80;0.63;;;;;;;;;;4996261;28;20109;-64
2024/04/01 09:04:08;;;;;;;0.98;0.40;;;;;;;;;;4992421;28;20061;-67
2024/04/01 09:06:34;;;;;;;1.63;0.60;;;;;;;;;;5014719;22;20053;-68
2024/04/01 09:09:00;;;;;;;1.40;0.60;;;;;;;;;;4999519;28;20042;-68
2024/04/01 09:11:29;;;;;;;0.70;0.35;;;;;;;;;;5004301;28;20018;-67
2024/04/01 09:13:55;;;;;;;0.88;0.52;;;;;;;;;;5004001;28;20030;-68
2024/04/01 09:16:22;;;;;;;0.65;0.32;;;;;;;;;;4985726;28;20403;-68
2024/04/01 09:18:49;;;;;;;0.63;0.40;;;;;;;;;;4981169;28;20066;-67
2024/04/01 09:21:16;;;;;;;0.90;0.50;;;;;;;;;;4983749;28;20038;-68
2024/04/01 09:23:43;;;;;;;1.88;0.68;;;;;;;;;;4984366;28;20064;-67
2024/04/01 09:26:09;;;;;;;0.30;0.20;;;;;;;;;;4982399;28;20530;-68
2024/04/01 09:28:35;;;;;;;0.90;0.60;;;;;;;;;;4981234;28;20497;-68
2024/04/01 09:31:01;;;;;;;1.00;0.40;;;;;;;;;;4981784;28;20035;-68
2024/04/01 09:33:27;;;;;;;1.65;0.60;;;;;;;;;;4984232;28;20026;-68
2024/04/01 09:35:53;;;;;;;1.13;0.95;;;;;;;;;;4984195;28;20026;-68
2024/04/01 09:38:20;;;;;;;0.52;0.30;;;;;;;;;;4980680;28;20022;-68
2024/04/01 09:40:49;;;;;;;1.20;0.40;;;;;;;;;;4980542;28;20029;-68
2024/04/01 09:43:20;;;;;;;0.88;0.40;;;;;;;;;;4983124;28;20045;-68
2024/04/01 09:45:47;;;;;;;0.47;0.35;;;;;;;;;;4984022;28;20023;-67
2024/04/01 09:48:14;;;;;;;0.43;0.30;;;;;;;;;;4981539;28;20054;-68
2024/04/01 09:50:42;;;;;;;0.52;0.40;;;;;;;;;;4980738;28;20718;-67
2024/04/01 09:53:08;;;;;;;1.45;0.57;;;;;;;;;;4981959;28;20023;-68
2024/04/01 09:55:42;;;;;;;0.73;0.45;;;;;;;;;;4984068;28;20454;-68
2024/04/01 09:58:27;;;;;;;0.38;0.20;;;;;;;;;;4988705;28;20505;-69
2024/04/01 10:01:06;;;;;;;2.25;0.52;;;;;;;;;;4980464;28;20023;-69
2024/04/01 10:03:44;;;;;;;1.85;0.50;;;;;;;;;;4979158;28;20037;-70
2024/04/01 10:06:20;;;;;;;0.93;0.50;;;;;;;;;;4986988;28;20030;-68
2024/04/01 10:08:52;;;;;;;0.65;0.30;;;;;;;;;;4980295;28;20085;-68
2024/04/01 10:11:21;;;;;;;0.55;0.30;;;;;;;;;;4990336;28;20057;-68
2024/04/01 10:14:06;;;;;;;0.68;0.60;;;;;;;;;;4983302;28;20033;-68
2024/04/01 10:16:51;;;;;;;0.50;0.30;;;;;;;;;;4974038;28;20026;-69
2024/04/01 10:19:26;;;;;;;0.65;0.22;;;;;;;;;;4983405;28;20030;-69
2024/04/01 10:21:55;;;;;;;0.30;0.30;;;;;;;;;;4983434;28;20023;-69
2024/04/01 10:24:39;;;;;;;0.40;0.30;;;;;;;;;;4972548;28;20085;-68
2024/04/01 10:27:08;;;;;;;1.17;0.40;;;;;;;;;;4981582;28;20114;-68
2024/04/01 10:29:37;;;;;;;0.55;0.30;;;;;;;;;;4983687;28;20545;-68
2024/04/01 10:32:06;;;;;;;0.38;0.20;;;;;;;;;;4982268;28;20457;-67
2024/04/01 10:34:32;;;;;;;1.38;0.28;;;;;;;;;;4990285;28;20034;-66
2024/04/01 10:37:17;;;;;;;0.63;0.30;;;;;;;;;;4983645;28;20023;-67
2024/04/01 10:39:55;;;;;;;0.47;0.25;;;;;;;;;;4976976;28;20030;-67
2024/04/01 10:42:40;;;;;;;0.52;0.40;;;;;;;;;;4974238;28;20046;-66
2024/04/01 10:45:09;;;;;;;1.52;0.40;;;;;;;;;;4978889;28;20561;-70
2024/04/01 10:47:44;;;;;;;0.63;0.40;;;;;;;;;;4979067;28;20589;-68
2024/04/01 10:50:33;;;;;;;1.17;0.55;;;;;;;;;;4972400;28;20027;-71
2024/04/01 10:53:18;;;;;;;3.95;0.68;;;;;;;;;;4984652;28;20090;-67
2024/04/01 10:55:47;;;;;;;1.83;0.75;;;;;;;;;;4953394;28;20475;-68
2024/04/01 10:58:13;;;;;;;1.95;0.75;;;;;;;;;;4955966;29;20439;-67
2024/04/01 11:00:45;;;;;;;2.33;0.80;;;;;;;;;;4965914;28;20015;-66
2024/04/01 11:03:31;;;;;;;9.88;1.63;;;;;;;;;;4974260;28;20498;-69
2024/04/01 11:06:07;;;;;;;10.45;3.10;;;;;;;;;;4955367;28;20470;-69
2024/04/01 11:08:48;;;;;;;12.63;3.22;;;;;;;;;;4976098;28;20391;-70
2024/04/01 11:11:14;;;;;;;;;;;;;;;;;;4976209;28;20023;-69
2024/04/01 11:13:40;;;;;;;9.32;3.25;;;;;;;;;;4975896;28;19980;-68
2024/04/01 11:16:06;;;;;;;12.68;3.00;;;;;;;;;;4991015;28;20027;-69
2024/04/01 11:18:48;;;;;;;13.80;3.15;;;;;;;;;;4975949;28;20027;-68
2024/04/01 11:21:33;;;;;;;10.77;2.53;;;;;;;;;;4976199;28;20555;-68
2024/04/01 11:24:08;;;;;;;14.40;3.67;;;;;;;;;;4975605;28;20450;-69
2024/04/01 11:26:57;;;;;;;13.63;3.67;;;;;;;;;;4977119;28;20027;-68
2024/04/01 11:29:23;;;;;;;8.38;2.45;;;;;;;;;;4979420;28;20118;-69
2024/04/01 11:31:57;;;;;;;11.38;2.15;;;;;;;;;;4980482;28;20058;-67
2024/04/01 11:34:31;;;;;;;12.77;2.65;;;;;;;;;;4982709;28;20513;-65
2024/04/01 11:37:03;;;;;;;14.68;2.38;;;;;;;;;;4983775;28;20031;-65
2024/04/01 11:39:29;;;;;;;10.48;2.63;;;;;;;;;;4987427;28;20097;-66
2024/04/01 11:41:56;;;;;;;10.05;2.42;;;;;;;;;;4977371;28;20109;-67
2024/04/01 11:44:25;;;;;;;8.30;2.28;;;;;;;;;;4975823;28;20066;-66
2024/04/01 11:46:51;;;;;;;9.82;2.15;;;;;;;;;;4975365;28;20382;-66
2024/04/01 11:49:17;;;;;;;6.55;2.13;;;;;;;;;;4975284;28;20031;-69
2024/04/01 11:51:43;;;;;;;10.50;1.90;;;;;;;;;;4974964;28;20042;-65
2024/04/01 11:54:09;;;;;;;13.02;1.98;;;;;;;;;;4975000;28;20034;-65
2024/04/01 11:56:39;;;;;;;6.03;1.83;;;;;;;;;;4975137;28;20022;-64
2024/04/01 11:59:09;;;;;;;10.70;1.75;;;;;;;;;;4974897;28;20095;-66
2024/04/01 12:01:36;;;;;;;15.10;2.92;;;;;;;;;;4974700;28;20030;-67
2024/04/01 12:04:03;;;;;;;9.15;2.28;;;;;;;;;;4974636;28;20518;-67
2024/04/01 12:06:32;;;;;;;8.05;1.90;;;;;;;;;;4974152;28;20038;-67
2024/04/01 12:09:03;;;;;;;8.95;2.38;;;;;;;;;;4974663;28;20031;-67
2024/04/01 12:11:29;;;;;;;19.75;2.33;;;;;;;;;;4974524;28;20098;-67
2024/04/01 12:13:55;;;;;;;12.43;2.60;;;;;;;;;;4973892;28;20374;-67
2024/04/01 12:16:22;;;;;;;11.57;2.00;;;;;;;;;;4973170;28;20110;-67
2024/04/01 12:18:49;;;;;;;4.68;1.58;;;;;;;;;;4973472;28;20058;-67
2024/04/01 12:21:20;;;;;;;5.38;1.55;;;;;;;;;;4973354;28;20347;-65
2024/04/01 12:23:49;;;;;;;10.60;1.95;;;;;;;;;;4973259;28;20452;-67
2024/04/01 12:26:16;;;;;;;11.82;1.75;;;;;;;;;;4971477;28;20462;-66
2024/04/01 12:28:46;;;;;;;5.43;1.65;;;;;;;;;;4971861;28;20084;-68
2024/04/01 12:31:13;;;;;;;10.85;2.03;;;;;;;;;;4973038;28;20166;-70
2024/04/01 12:33:41;;;;;;;9.70;1.95;;;;;;;;;;4973120;28;20023;-67
2024/04/01 12:36:07;;;;;;;8.52;2.03;;;;;;;;;;4973606;28;20027;-66
2024/04/01 12:38:34;;;;;;;9.38;1.75;;;;;;;;;;4973631;28;20094;-68
2024/04/01 12:41:01;;;;;;;10.82;1.98;;;;;;;;;;4973338;28;20041;-71
2024/04/01 12:43:27;;;;;;;9.45;2.00;;;;;;;;;;4973391;28;20370;-66
2024/04/01 12:45:54;;;;;;;11.05;2.10;;;;;;;;;;4973362;28;20023;-67
2024/04/01 12:48:20;;;;;;;10.43;2.10;;;;;;;;;;4974029;28;20510;-68
2024/04/01 12:50:48;;;;;;;14.68;2.40;;;;;;;;;;4972049;28;20023;-71
2024/04/01 12:53:31;;;;;;;4.07;1.55;;;;;;;;;;4973077;28;20036;-69
2024/04/01 12:56:15;;;;;;;7.03;1.13;;;;;;;;;;4973311;28;20074;-69
2024/04/01 12:59:04;;;;;;;8.88;1.40;;;;;;;;;;4973315;28;20054;-68
2024/04/01 13:01:47;;;;;;;6.43;1.67;;;;;;;;;;4953971;28;20041;-68
2024/04/01 13:04:17;;;;;;;2.13;1.20;;;;;;;;;;4957751;28;20039;-69
2024/04/01 13:06:48;;;;;;;8.63;1.50;;;;;;;;;;4953587;29;20480;-69
2024/04/01 13:09:14;;;;;;;;;;;;;;;;;;4953771;29;20020;-67
2024/04/01 13:11:58;;;;;;;7.43;1.83;;;;;;;;;;4953306;29;19907;-69
2024/04/01 13:14:31;;;;;;;7.22;1.50;;;;;;;;;;4953595;28;20065;-68
2024/04/01 13:17:02;;;;;;;6.35;1.65;;;;;;;;;;4953329;28;20118;-68
2024/04/01 13:19:33;;;;;;;6.65;1.42;;;;;;;;;;4968774;28;20054;-68
2024/04/01 13:22:10;;;;;;;5.00;1.50;;;;;;;;;;4979105;28;20022;-71
2024/04/01 13:24:39;;;;;;;9.02;1.88;;;;;;;;;;4986691;28;20027;-68
2024/04/01 13:27:15;;;;;;;10.23;2.42;;;;;;;;;;4972410;28;20082;-70
2024/04/01 13:29:42;;;;;;;8.70;1.83;;;;;;;;;;4972297;28;20138;-71
2024/04/01 13:32:25;;;;;;;15.02;2.08;;;;;;;;;;4972171;28;20026;-70
2024/04/01 13:34:56;;;;;;;18.27;2.38;;;;;;;;;;4986978;28;20030;-71
2024/04/01 13:37:25;;;;;;;7.65;1.70;;;;;;;;;;4975244;28;20485;-70
2024/04/01 13:39:54;;;;;;;12.05;2.00;;;;;;;;;;4972470;28;20034;-70
2024/04/01 13:42:32;;;;;;;9.52;1.73;;;;;;;;;;4977152;28;20025;-70
2024/04/01 13:45:17;;;;;;;12.43;1.70;;;;;;;;;;4971920;28;20026;-70
2024/04/01 13:47:43;;;;;;;13.05;2.13;;;;;;;;;;4972304;28;20498;-69
2024/04/01 13:50:15;;;;;;;8.40;1.48;;;;;;;;;;4972167;28;20023;-70
2024/04/01 13:52:49;;;;;;;6.10;1.73;;;;;;;;;;4971137;28;20062;-70
2024/04/01 13:55:18;;;;;;;5.78;1.50;;;;;;;;;;4972176;28;20093;-70
2024/04/01 13:57:53;;;;;;;5.38;1.70;;;;;;;;;;4971770;28;20054;-70
2024/04/01 14:00:40;;;;;;;12.95;2.38;;;;;;;;;;4971167;28;20023;-70
2024/04/01 14:03:30;;;;;;;7.90;1.30;;;;;;;;;;4971286;28;20101;-70
2024/04/01 14:06:11;;;;;;;2.97;1.20;;;;;;;;;;4963922;28;20133;-70
2024/04/01 14:08:43;;;;;;;8.43;1.60;;;;;;;;;;4971165;28;20394;-70
2024/04/01 14:11:28;;;;;;;6.97;1.48;;;;;;;;;;4970926;28;20363;-69
2024/04/01 14:14:04;;;;;;;4.28;1.23;;;;;;;;;;4971836;28;20019;-70
2024/04/01 14:16:45;;;;;;;4.15;1.40;;;;;;;;;;4972011;28;20046;-69
2024/04/01 14:19:11;;;;;;;;;;;;;;;;;;4972047;28;20031;-70
2024/04/01 14:21:37;;;;;;;5.03;1.35;;;;;;;;;;4971685;28;19906;-70
2024/04/01 14:24:03;;;;;;;2.83;1.05;;;;;;;;;;4971917;28;20035;-70
2024/04/01 14:26:29;;;;;;;3.78;0.90;;;;;;;;;;4971724;28;20062;-69
2024/04/01 14:28:55;;;;;;;3.55;1.20;;;;;;;;;;4971578;28;20065;-70
2024/04/01 14:31:21;;;;;;;3.50;0.90;;;;;;;;;;4975157;28;20026;-70
2024/04/01 14:33:48;;;;;;;4.95;0.90;;;;;;;;;;4975831;28;20097;-70
2024/04/01 14:36:14;;;;;;;3.03;1.17;;;;;;;;;;4975706;28;20030;-71
2024/04/01 14:38:40;;;;;;;3.03;0.85;;;;;;;;;;4990573;28;20126;-70
2024/04/01 14:41:06;;;;;;;3.53;0.90;;;;;;;;;;4975622;28;20028;-70
2024/04/01 14:43:32;;;;;;;1.70;0.60;;;;;;;;;;4975498;28;20121;-70
2024/04/01 14:45:59;;;;;;;9.70;1.08;;;;;;;;;;4989963;28;20065;-70
2024/04/01 14:48:25;;;;;;;1.80;0.90;;;;;;;;;;4975805;28;20053;-69
2024/04/01 14:50:51;;;;;;;3.38;1.17;;;;;;;;;;4975445;28;20356;-70